createdAt,value
2022-08-01T00:00:11.400Z,98545.63
2022-08-01T00:02:39.860Z,98532.91
2022-08-01T00:05:09.213Z,98543.41
2022-08-01T00:07:37.275Z,98539.09
2022-08-01T00:10:05.716Z,98542.47
2022-08-01T00:12:33.802Z,98539.31
2022-08-01T00:15:03.225Z,98538.34
2022-08-01T00:17:31.295Z,98534.59
2022-08-01T00:19:59.385Z,98539.28
2022-08-01T00:22:27.486Z,98537.72
2022-08-01T00:24:55.628Z,98544.25
2022-08-01T00:27:23.692Z,98544.34
2022-08-01T00:30:12.033Z,98537.22
2022-08-01T00:32:43.790Z,98550.25
2022-08-01T00:35:11.874Z,98547.44
2022-08-01T00:37:40.319Z,98555.19
2022-08-01T00:40:08.923Z,98557.97
2022-08-01T00:42:41.552Z,98561.41
2022-08-01T00:45:11.799Z,98559.31
2022-08-01T00:47:39.892Z,98558.22
2022-08-01T00:50:10.071Z,98555.47
2022-08-01T00:52:38.854Z,98552.50
2022-08-01T00:55:07.189Z,98558.13
2022-08-01T00:58:01.494Z,98553.94
2022-08-01T01:00:27.511Z,98557.63
2022-08-01T01:02:55.729Z,98555.00
2022-08-01T01:05:25.117Z,98554.59
2022-08-01T01:07:58.405Z,98550.84
2022-08-01T01:10:32.377Z,98554.75
2022-08-01T01:13:04.162Z,98547.00
2022-08-01T01:15:37.124Z,98549.09
2022-08-01T01:18:06.121Z,98548.56
2022-08-01T01:20:38.048Z,98555.56
2022-08-01T01:23:14.339Z,98551.72
2022-08-01T01:25:47.933Z,98558.31
2022-08-01T01:28:19.043Z,98549.38
2022-08-01T01:30:50.939Z,98548.81
2022-08-01T01:33:19.597Z,98544.47
2022-08-01T01:35:49.761Z,98558.81
2022-08-01T01:38:20.416Z,98559.31
2022-08-01T01:40:49.753Z,98558.91
2022-08-01T01:43:18.662Z,98565.84
2022-08-01T01:45:49.274Z,98564.88
2022-08-01T01:48:22.236Z,98563.81
2022-08-01T01:50:51.388Z,98566.97
2022-08-01T01:53:21.427Z,98573.66
2022-08-01T01:55:50.917Z,98565.72
2022-08-01T01:58:22.099Z,98568.09
2022-08-01T02:00:53.403Z,98563.84
2022-08-01T02:03:22.772Z,98542.41
2022-08-01T02:05:51.415Z,98571.06
2022-08-01T02:08:22.168Z,98565.59
2022-08-01T02:11:06.428Z,98572.03
2022-08-01T02:13:36.300Z,98569.91
2022-08-01T02:16:07.880Z,98574.16
2022-08-01T02:18:36.067Z,98578.00
2022-08-01T02:21:06.100Z,98570.06
2022-08-01T02:23:35.564Z,98581.91
2022-08-01T02:26:10.299Z,98578.28
2022-08-01T02:28:45.402Z,98580.28
2022-08-01T02:31:16.275Z,98585.00
2022-08-01T02:33:46.488Z,98582.31
2022-08-01T02:36:30.094Z,98579.31
2022-08-01T02:39:02.664Z,98582.34
2022-08-01T02:41:32.592Z,98584.59
2022-08-01T02:44:01.768Z,98582.66
2022-08-01T02:46:33.525Z,98582.41
2022-08-01T02:49:02.978Z,98588.44
2022-08-01T02:51:35.158Z,98586.50
2022-08-01T02:54:04.456Z,98592.53
2022-08-01T02:56:36.625Z,98588.97
2022-08-01T02:59:06.268Z,98591.66
2022-08-01T03:01:37.756Z,98586.19
2022-08-01T03:04:06.811Z,98594.47
2022-08-01T03:06:37.958Z,98593.38
2022-08-01T03:09:08.755Z,98591.16
2022-08-01T03:11:38.340Z,98597.47
2022-08-01T03:14:07.951Z,98584.25
2022-08-01T03:16:39.306Z,98587.00
2022-08-01T03:19:09.193Z,98589.53
2022-08-01T03:21:38.166Z,98584.00
2022-08-01T03:24:10.098Z,98582.34
2022-08-01T03:26:38.886Z,98595.28
2022-08-01T03:29:08.342Z,98591.72
2022-08-01T03:31:39.088Z,98592.25
2022-08-01T03:34:07.817Z,98594.19
2022-08-01T03:36:39.637Z,98596.63
2022-08-01T03:39:10.542Z,98595.00
2022-08-01T03:41:42.023Z,98592.47
2022-08-01T03:44:20.227Z,98601.84
2022-08-01T03:46:50.813Z,98599.44
2022-08-01T03:49:20.492Z,98600.78
2022-08-01T03:51:50.373Z,98607.59
2022-08-01T03:54:22.072Z,98596.63
2022-08-01T03:56:52.310Z,98596.56
2022-08-01T03:59:21.100Z,98601.38
2022-08-01T04:01:50.804Z,98596.03
2022-08-01T04:04:19.119Z,98606.50
2022-08-01T04:06:47.179Z,98605.41
2022-08-01T04:09:15.382Z,98602.94
2022-08-01T04:11:43.438Z,98603.78
2022-08-01T04:14:11.508Z,98605.09
2022-08-01T04:16:39.993Z,98596.88
2022-08-01T04:19:09.550Z,98598.75
2022-08-01T04:21:37.974Z,98603.44
2022-08-01T04:24:09.586Z,98600.47
2022-08-01T04:26:39.714Z,98598.84
2022-08-01T04:29:08.716Z,98605.13
2022-08-01T04:31:37.937Z,98599.16
2022-08-01T04:34:07.688Z,98611.50
2022-08-01T04:36:39.047Z,98609.09
2022-08-01T04:39:07.947Z,98608.75
2022-08-01T04:41:39.340Z,98608.31
2022-08-01T04:44:07.892Z,98611.66
2022-08-01T04:46:37.805Z,98612.66
2022-08-01T04:49:07.997Z,98612.28
2022-08-01T04:51:37.478Z,98605.56
2022-08-01T04:54:05.723Z,98611.47
2022-08-01T04:56:35.024Z,98605.56
2022-08-01T04:59:20.516Z,98614.16
2022-08-01T05:01:51.702Z,98615.06
2022-08-01T05:04:20.311Z,98617.22
2022-08-01T05:06:49.758Z,98611.81
2022-08-01T05:09:17.939Z,98609.69
2022-08-01T05:11:46.033Z,98606.78
2022-08-01T05:14:14.156Z,98607.66
2022-08-01T05:16:42.747Z,98608.97
2022-08-01T05:19:13.087Z,98606.34
2022-08-01T05:21:41.189Z,98613.47
2022-08-01T05:24:10.616Z,98623.69
2022-08-01T05:26:38.700Z,98618.31
2022-08-01T05:29:09.316Z,98614.78
2022-08-01T05:31:37.383Z,98626.16
2022-08-01T05:34:07.827Z,98610.97
2022-08-01T05:36:43.232Z,98615.16
2022-08-01T05:39:12.772Z,98613.59
2022-08-01T05:41:40.882Z,98621.94
2022-08-01T05:44:09.043Z,98614.31
2022-08-01T05:46:37.143Z,98609.09
2022-08-01T05:49:06.309Z,98624.66
2022-08-01T05:51:34.567Z,98625.41
2022-08-01T05:54:03.491Z,98615.22
2022-08-01T05:56:33.250Z,98619.31
2022-08-01T05:59:03.601Z,98617.41
2022-08-01T06:01:31.698Z,98613.38
2022-08-01T06:03:59.937Z,98626.06
2022-08-01T06:06:28.011Z,98621.28
2022-08-01T06:08:56.090Z,98637.06
2022-08-01T06:11:24.155Z,98626.19
2022-08-01T06:13:54.640Z,98621.75
2022-08-01T06:16:22.727Z,98625.66
2022-08-01T06:18:54.963Z,98619.97
2022-08-01T06:21:25.047Z,98605.25
2022-08-01T06:23:55.711Z,98614.59
2022-08-01T06:26:24.148Z,98625.41
2022-08-01T06:28:53.960Z,98619.41
2022-08-01T06:31:22.318Z,98621.47
2022-08-01T06:33:50.675Z,98622.75
2022-08-01T06:36:19.144Z,98618.94
2022-08-01T06:38:47.508Z,98617.03
2022-08-01T06:41:15.696Z,98623.19
2022-08-01T06:43:43.760Z,98625.78
2022-08-01T06:46:13.171Z,98615.63
2022-08-01T06:48:43.638Z,98626.13
2022-08-01T06:51:14.644Z,98630.41
2022-08-01T06:53:43.906Z,98629.47
2022-08-01T06:56:13.393Z,98630.88
2022-08-01T06:58:41.458Z,98638.84
2022-08-01T07:01:09.758Z,98637.00
2022-08-01T07:03:53.953Z,98640.50
2022-08-01T07:06:24.143Z,98635.44
2022-08-01T07:08:52.425Z,98641.75
2022-08-01T07:11:20.594Z,98648.59
2022-08-01T07:13:48.932Z,98640.31
2022-08-01T07:16:17.511Z,98643.56
2022-08-01T07:18:49.289Z,98632.56
2022-08-01T07:21:39.377Z,98636.81
2022-08-01T07:24:12.889Z,98644.88
2022-08-01T07:26:52.639Z,98631.34
2022-08-01T07:29:23.132Z,98634.56
2022-08-01T07:31:51.257Z,98642.72
2022-08-01T07:34:20.711Z,98634.84
2022-08-01T07:36:48.781Z,98640.59
2022-08-01T07:39:16.879Z,98631.22
2022-08-01T07:42:05.973Z,98627.91
2022-08-01T07:44:33.061Z,98627.81
2022-08-01T07:47:01.203Z,98630.97
2022-08-01T07:49:32.797Z,98623.50
2022-08-01T07:52:04.392Z,98626.03
2022-08-01T07:54:33.125Z,98628.75
2022-08-01T07:57:02.389Z,98624.13
2022-08-01T07:59:30.508Z,98625.56
2022-08-01T08:02:00.735Z,98626.56
2022-08-01T08:04:30.604Z,98628.59
2022-08-01T08:06:58.740Z,98628.00
2022-08-01T08:09:27.251Z,98627.97
2022-08-01T08:11:55.324Z,98624.88
2022-08-01T08:14:32.406Z,98629.72
2022-08-01T08:17:03.342Z,98622.28
2022-08-01T08:19:38.657Z,98627.31
2022-08-01T08:22:07.933Z,98620.94
2022-08-01T08:24:36.577Z,98622.22
2022-08-01T08:27:13.813Z,98618.00
2022-08-01T08:29:42.741Z,98620.28
2022-08-01T08:32:11.301Z,98616.16
2022-08-01T08:34:40.889Z,98623.69
2022-08-01T08:37:09.684Z,98617.88
2022-08-01T08:39:41.750Z,98613.63
2022-08-01T08:42:11.109Z,98617.78
2022-08-01T08:44:39.962Z,98611.25
2022-08-01T08:47:17.332Z,98610.88
2022-08-01T08:49:49.848Z,98615.69
2022-08-01T08:52:19.446Z,98606.84
2022-08-01T08:54:47.948Z,98609.00
2022-08-01T08:57:16.457Z,98621.53
2022-08-01T08:59:45.001Z,98614.19
2022-08-01T09:02:14.096Z,98612.38
2022-08-01T09:04:42.600Z,98611.84
2022-08-01T09:07:12.741Z,98615.75
2022-08-01T09:09:41.683Z,98616.84
2022-08-01T09:12:12.397Z,98627.28
2022-08-01T09:14:46.648Z,98622.72
2022-08-01T09:17:14.752Z,98624.63
2022-08-01T09:19:44.260Z,98627.97
2022-08-01T09:22:14.912Z,98624.13
2022-08-01T09:24:43.595Z,98622.16
2022-08-01T09:27:19.803Z,98624.63
2022-08-01T09:30:00.767Z,98631.69
2022-08-01T09:32:35.298Z,98622.59
2022-08-01T09:35:19.539Z,98637.56
2022-08-01T09:37:49.007Z,98629.19
2022-08-01T09:40:17.149Z,98634.38
2022-08-01T09:42:49.690Z,98632.94
2022-08-01T09:45:41.938Z,98623.03
2022-08-01T09:48:14.098Z,98614.34
2022-08-01T09:50:43.830Z,98621.53
2022-08-01T09:53:30.430Z,98623.78
2022-08-01T09:56:10.325Z,98621.63
2022-08-01T09:58:56.221Z,98621.59
2022-08-01T10:01:27.146Z,98612.59
2022-08-01T10:04:09.835Z,98616.63
2022-08-01T10:06:39.244Z,98615.72
2022-08-01T10:09:08.711Z,98610.78
2022-08-01T10:11:40.046Z,98616.91
2022-08-01T10:14:08.742Z,98614.22
2022-08-01T10:16:38.616Z,98608.44
2022-08-01T10:19:11.288Z,98604.50
2022-08-01T10:21:57.927Z,98596.63
2022-08-01T10:24:30.009Z,98593.09
2022-08-01T10:27:05.811Z,98595.59
2022-08-01T10:29:45.990Z,98603.94
2022-08-01T10:32:16.917Z,98603.47
2022-08-01T10:34:45.401Z,98604.72
2022-08-01T10:37:14.877Z,98600.16
2022-08-01T10:39:46.850Z,98595.38
2022-08-01T10:42:15.582Z,98601.16
2022-08-01T10:44:47.212Z,98599.38
2022-08-01T10:47:23.323Z,98593.03
2022-08-01T10:49:59.334Z,98584.59
2022-08-01T10:52:28.391Z,98589.94
2022-08-01T10:55:05.063Z,98588.19
2022-08-01T10:57:43.529Z,98587.22
2022-08-01T11:00:21.472Z,98587.34
2022-08-01T11:02:59.150Z,98580.81
2022-08-01T11:05:27.376Z,98578.97
2022-08-01T11:07:56.744Z,98576.56
2022-08-01T11:10:33.088Z,98567.59
2022-08-01T11:13:04.475Z,98578.44
2022-08-01T11:15:32.610Z,98564.81
2022-08-01T11:18:02.034Z,98566.78
2022-08-01T11:20:32.189Z,98561.59
2022-08-01T11:23:36.261Z,98559.34
2022-08-01T11:26:29.104Z,98540.41
2022-08-01T11:29:21.143Z,98560.47
2022-08-01T11:31:51.095Z,98566.50
2022-08-01T11:34:19.739Z,98561.66
2022-08-01T11:37:09.815Z,98561.06
2022-08-01T11:39:39.048Z,98558.63
2022-08-01T11:42:22.571Z,98555.81
2022-08-01T11:44:52.817Z,98551.81
2022-08-01T11:47:40.946Z,98550.78
2022-08-01T11:50:32.034Z,98550.34
2022-08-01T11:53:00.845Z,98548.69
2022-08-01T11:55:31.544Z,98546.75
2022-08-01T11:58:01.357Z,98543.38
2022-08-01T12:00:31.714Z,98529.41
2022-08-01T12:03:00.672Z,98527.69
2022-08-01T12:05:31.377Z,98514.97
2022-08-01T12:07:59.706Z,98514.44
2022-08-01T12:10:29.350Z,98514.47
2022-08-01T12:13:01.064Z,98521.31
2022-08-01T12:15:33.647Z,98518.91
2022-08-01T12:18:03.423Z,98523.81
2022-08-01T12:20:33.196Z,98522.22
2022-08-01T12:23:02.138Z,98519.53
2022-08-01T12:25:30.551Z,98523.31
2022-08-01T12:28:02.084Z,98529.22
2022-08-01T12:30:31.756Z,98530.00
2022-08-01T12:33:01.253Z,98528.69
2022-08-01T12:35:30.193Z,98517.22
2022-08-01T12:37:59.043Z,98508.34
2022-08-01T12:40:28.151Z,98517.84
2022-08-01T12:42:57.337Z,98511.91
2022-08-01T12:45:26.848Z,98507.75
2022-08-01T12:47:55.914Z,98512.69
2022-08-01T12:50:29.024Z,98511.94
2022-08-01T12:52:57.816Z,98506.44
2022-08-01T12:55:34.635Z,98508.09
2022-08-01T12:58:06.853Z,98517.09
2022-08-01T13:00:35.504Z,98517.22
2022-08-01T13:03:04.839Z,98506.84
2022-08-01T13:05:44.160Z,98509.72
2022-08-01T13:08:13.095Z,98511.91
2022-08-01T13:10:41.532Z,98508.56
2022-08-01T13:13:10.196Z,98510.22
2022-08-01T13:15:41.807Z,98492.84
2022-08-01T13:18:26.035Z,98490.00
2022-08-01T13:26:41.849Z,98503.03
2022-08-01T13:29:11.565Z,98491.38
2022-08-01T13:31:40.513Z,98497.31
2022-08-01T13:34:11.516Z,98489.78
2022-08-01T13:36:40.693Z,98492.06
2022-08-01T13:39:29.334Z,98492.78
2022-08-01T13:41:58.765Z,98494.06
2022-08-01T13:44:26.825Z,98491.38
2022-08-01T13:46:57.284Z,98496.34
2022-08-01T13:49:25.565Z,98500.91
2022-08-01T13:52:07.577Z,98497.13
2022-08-01T13:54:36.999Z,98493.41
2022-08-01T13:57:06.828Z,98490.56
2022-08-01T13:59:35.269Z,98499.28
2022-08-01T14:02:03.918Z,98483.28
2022-08-01T14:04:32.196Z,98491.19
2022-08-01T14:07:03.076Z,98484.72
2022-08-01T14:09:35.300Z,98482.50
2022-08-01T14:12:14.754Z,98471.91
2022-08-01T14:14:42.855Z,98480.47
2022-08-01T14:17:13.745Z,98474.34
2022-08-01T14:19:46.230Z,98474.97
2022-08-01T14:22:14.562Z,98468.78
2022-08-01T14:24:42.758Z,98469.63
2022-08-01T14:27:11.178Z,98470.75
2022-08-01T14:30:03.154Z,98465.13
2022-08-01T14:32:29.100Z,98468.75
2022-08-01T14:34:57.658Z,98465.06
2022-08-01T14:37:31.720Z,98464.34
2022-08-01T14:40:05.610Z,98483.72
2022-08-01T14:42:35.674Z,98479.31
2022-08-01T14:45:09.285Z,98468.78
2022-08-01T14:47:38.032Z,98468.31
2022-08-01T14:50:07.308Z,98469.38
2022-08-01T14:52:35.789Z,98467.25
2022-08-01T14:55:04.164Z,98471.56
2022-08-01T14:57:34.812Z,98468.84
2022-08-01T15:00:03.053Z,98464.38
2022-08-01T15:02:32.464Z,98468.28
2022-08-01T15:05:00.597Z,98474.28
2022-08-01T15:07:28.934Z,98459.63
2022-08-01T15:09:57.164Z,98462.44
2022-08-01T15:12:25.264Z,98470.44
2022-08-01T15:14:53.443Z,98463.31
2022-08-01T15:17:22.709Z,98465.56
2022-08-01T15:19:54.603Z,98467.75
2022-08-01T15:22:23.257Z,98473.28
2022-08-01T15:24:56.849Z,98471.78
2022-08-01T15:27:25.741Z,98466.72
2022-08-01T15:29:54.402Z,98466.63
2022-08-01T15:32:22.542Z,98466.03
2022-08-01T15:34:50.713Z,98477.16
2022-08-01T15:37:20.256Z,98476.97
2022-08-01T15:39:48.437Z,98472.84
2022-08-01T15:42:20.207Z,98475.81
2022-08-01T15:44:53.795Z,98477.56
2022-08-01T15:47:22.593Z,98479.97
2022-08-01T15:49:56.727Z,98475.16
2022-08-01T15:52:30.773Z,98475.88
2022-08-01T15:55:02.324Z,98473.88
2022-08-01T15:57:32.804Z,98467.09
2022-08-01T16:00:00.885Z,98471.75
2022-08-01T16:02:28.948Z,98476.19
2022-08-01T16:04:57.006Z,98469.00
2022-08-01T16:07:27.024Z,98473.44
2022-08-01T16:09:55.117Z,98472.06
2022-08-01T16:12:23.179Z,98465.03
2022-08-01T16:14:51.217Z,98476.97
2022-08-01T16:17:19.249Z,98473.09
2022-08-01T16:19:47.332Z,98468.19
2022-08-01T16:22:15.367Z,98469.53
2022-08-01T16:24:44.824Z,98465.06
2022-08-01T16:27:12.910Z,98466.09
2022-08-01T16:29:41.025Z,98461.06
2022-08-01T16:32:30.100Z,98468.78
2022-08-01T16:34:59.316Z,98463.44
2022-08-01T16:37:29.801Z,98462.50
2022-08-01T16:39:59.216Z,98469.38
2022-08-01T16:42:29.664Z,98471.28
2022-08-01T16:44:59.391Z,98472.25
2022-08-01T16:47:27.699Z,98477.16
2022-08-01T16:49:55.829Z,98471.78
2022-08-01T16:52:28.768Z,98477.38
2022-08-01T16:54:58.005Z,98476.56
2022-08-01T16:57:27.391Z,98485.16
2022-08-01T16:59:55.516Z,98485.81
2022-08-01T17:02:24.509Z,98486.56
2022-08-01T17:04:52.686Z,98483.03
2022-08-01T17:07:20.805Z,98490.31
2022-08-01T17:09:48.875Z,98492.22
2022-08-01T17:12:21.941Z,98502.69
2022-08-01T17:14:52.012Z,98481.41
2022-08-01T17:17:20.253Z,98493.50
2022-08-01T17:19:48.355Z,98492.41
2022-08-01T17:22:16.516Z,98496.66
2022-08-01T17:24:44.610Z,98496.41
2022-08-01T17:27:13.767Z,98498.56
2022-08-01T17:29:43.897Z,98503.75
2022-08-01T17:32:14.444Z,98513.97
2022-08-01T17:34:42.619Z,98506.69
2022-08-01T17:37:10.971Z,98512.88
2022-08-01T17:39:40.036Z,98514.84
2022-08-01T17:42:08.747Z,98508.50
2022-08-01T17:44:37.179Z,98511.09
2022-08-01T17:47:06.268Z,98513.72
2022-08-01T17:52:29.480Z,98518.75
2022-08-01T17:55:00.639Z,98515.84
2022-08-01T17:57:28.985Z,98514.53
2022-08-01T17:59:57.922Z,98520.41
2022-08-01T18:02:26.505Z,98526.53
2022-08-01T18:04:56.108Z,98530.63
2022-08-01T18:08:00.592Z,98526.41
2022-08-01T18:10:12.382Z,98528.69
2022-08-01T18:12:40.512Z,98532.44
2022-08-01T18:15:08.995Z,98533.59
2022-08-01T18:17:37.267Z,98536.31
2022-08-01T18:20:08.420Z,98533.41
2022-08-01T18:22:36.966Z,98537.75
2022-08-01T18:25:08.700Z,98507.44
2022-08-01T18:28:29.587Z,98536.28
2022-08-01T18:30:27.924Z,98535.28
2022-08-01T18:32:56.061Z,98537.06
2022-08-01T18:35:51.702Z,98529.72
2022-08-01T18:38:14.108Z,98532.81
2022-08-01T18:40:42.720Z,98529.81
2022-08-01T18:43:10.799Z,98533.84
2022-08-01T18:45:42.749Z,98544.59
2022-08-01T18:48:11.438Z,98538.56
2022-08-01T18:50:40.916Z,98545.38
2022-08-01T18:53:09.055Z,98548.25
2022-08-01T18:55:37.197Z,98558.47
2022-08-01T18:58:05.365Z,98561.69
2022-08-01T19:00:33.474Z,98570.09
2022-08-01T19:03:01.581Z,98571.03
2022-08-01T19:05:31.264Z,98568.03
2022-08-01T19:08:07.232Z,98550.03
2022-08-01T19:10:35.971Z,98581.78
2022-08-01T19:13:04.102Z,98582.78
2022-08-01T19:15:34.656Z,98582.06
2022-08-01T19:18:03.085Z,98585.44
2022-08-01T19:20:31.337Z,98583.50
2022-08-01T19:22:59.677Z,98581.88
2022-08-01T19:25:29.292Z,98585.69
2022-08-01T19:27:58.564Z,98582.25
2022-08-01T19:30:27.252Z,98586.97
2022-08-01T19:32:56.190Z,98587.88
2022-08-01T19:35:25.352Z,98589.81
2022-08-01T19:37:54.169Z,98589.38
2022-08-01T19:40:26.164Z,98592.19
2022-08-01T19:42:57.739Z,98599.00
2022-08-01T19:45:29.177Z,98603.19
2022-08-01T19:48:00.493Z,98601.19
2022-08-01T19:50:29.800Z,98601.66
2022-08-01T19:52:58.848Z,98605.31
2022-08-01T19:55:28.036Z,98608.31
2022-08-01T19:58:26.002Z,98615.84
2022-08-01T20:00:46.590Z,98618.53
2022-08-01T20:03:15.941Z,98623.53
2022-08-01T20:05:44.500Z,98618.88
2022-08-01T20:08:13.448Z,98623.81
2022-08-01T20:10:41.813Z,98623.13
2022-08-01T20:13:13.493Z,98629.56
2022-08-01T20:15:44.026Z,98627.81
2022-08-01T20:18:12.154Z,98638.31
2022-08-01T20:20:40.334Z,98638.34
2022-08-01T20:23:10.382Z,98649.56
2022-08-01T20:25:42.074Z,98641.81
2022-08-01T20:28:10.491Z,98633.63
2022-08-01T20:30:40.684Z,98658.84
2022-08-01T20:33:09.586Z,98652.63
2022-08-01T20:35:52.061Z,98649.88
2022-08-01T20:38:23.143Z,98649.66
2022-08-01T20:40:52.974Z,98652.53
2022-08-01T20:43:21.844Z,98658.97
2022-08-01T20:45:52.443Z,98663.44
2022-08-01T20:48:21.295Z,98652.34
2022-08-01T20:51:07.396Z,98655.50
2022-08-01T20:53:40.590Z,98651.59
2022-08-01T20:56:11.199Z,98653.22
2022-08-01T20:58:46.165Z,98650.06
2022-08-01T21:01:18.732Z,98651.81
2022-08-01T21:03:52.250Z,98647.81
2022-08-01T21:06:23.936Z,98646.19
2022-08-01T21:08:55.644Z,98656.72
2022-08-01T21:11:26.487Z,98655.09
2022-08-01T21:13:58.992Z,98653.97
2022-08-01T21:16:32.454Z,98652.53
2022-08-01T21:19:22.097Z,98665.59
2022-08-01T21:21:52.086Z,98662.84
2022-08-01T21:24:23.530Z,98661.22
2022-08-01T21:26:52.701Z,98670.78
2022-08-01T21:29:22.369Z,98677.78
2022-08-01T21:32:11.384Z,98674.06
2022-08-01T21:34:39.853Z,98667.25
2022-08-01T21:37:10.812Z,98675.91
2022-08-01T21:39:39.460Z,98674.13
2022-08-01T21:42:15.188Z,98666.47
2022-08-01T21:44:47.428Z,98678.91
2022-08-01T21:47:16.959Z,98674.69
2022-08-01T21:49:45.081Z,98678.84
2022-08-01T21:52:15.307Z,98681.34
2022-08-01T21:54:50.614Z,98680.16
2022-08-01T21:57:25.775Z,98677.78
2022-08-01T22:02:40.866Z,98681.78
2022-08-01T22:05:10.087Z,98682.38
2022-08-01T22:07:53.434Z,98677.50
2022-08-01T22:10:21.797Z,98674.81
2022-08-01T22:12:50.123Z,98679.47
2022-08-01T22:15:20.059Z,98680.41
2022-08-01T22:17:51.592Z,98673.38
2022-08-01T22:20:21.024Z,98670.94
2022-08-01T22:22:52.563Z,98677.88
2022-08-01T22:25:20.962Z,98683.84
2022-08-01T22:28:05.788Z,98680.56
2022-08-01T22:30:41.404Z,98679.81
2022-08-01T22:33:15.996Z,98676.03
2022-08-01T22:35:46.490Z,98677.63
2022-08-01T22:38:17.697Z,98682.94
2022-08-01T22:40:46.984Z,98674.28
2022-08-01T22:43:22.457Z,98684.44
2022-08-01T22:45:55.352Z,98685.59
2022-08-01T22:48:26.413Z,98681.19
2022-08-01T22:50:57.741Z,98684.50
2022-08-01T22:53:31.831Z,98688.00
2022-08-01T22:56:02.369Z,98688.44
2022-08-01T22:58:31.634Z,98696.34
2022-08-01T23:01:01.187Z,98701.25
2022-08-01T23:03:33.583Z,98698.59
2022-08-01T23:06:03.979Z,98704.34
2022-08-01T23:08:33.011Z,98708.97
2022-08-01T23:11:02.064Z,98703.06
2022-08-01T23:13:30.554Z,98694.81
2022-08-01T23:15:58.682Z,98702.44
2022-08-01T23:18:27.520Z,98697.94
2022-08-01T23:20:58.705Z,98706.47
2022-08-01T23:23:31.446Z,98704.69
2022-08-01T23:26:00.405Z,98706.28
2022-08-01T23:28:29.099Z,98704.31
2022-08-01T23:30:57.351Z,98698.34
2022-08-01T23:33:25.392Z,98699.28
2022-08-01T23:35:57.043Z,98703.13
2022-08-01T23:38:25.089Z,98692.72
2022-08-01T23:40:55.834Z,98694.81
2022-08-01T23:43:23.941Z,98693.81
2022-08-01T23:46:03.495Z,98682.00
2022-08-01T23:48:34.268Z,98685.78
2022-08-01T23:51:04.236Z,98685.06
2022-08-01T23:53:33.664Z,98691.06
2022-08-01T23:56:04.226Z,98697.47
2022-08-01T23:58:33.351Z,98684.59
